• Join FlightAware (Why Join?)
  • Login
  • US Flag 
08:01AM EDT


 

Airport Tracker/Info


-or-


 

Live Flight TrackerFlight Track Log ✈ KBA204 ✈ 09-May-2013 ✈ CYZF - CYEV

Flight Track Log - Related Links

Times and Time Zones

All times are in EDT time to prevent confusion due to time zone crossing. See the KBA204 flight status page for this flight to view local times or setup timezone preferences in your user account.

Time Position Orientation Groundspeed Altitude Reporting Facility
EDT Latitude Longitude Course Direction KTS MPH feet Rate Location/Type
02:47AM 62.4667 -114.5333 318° Northwest 120 138 1,300  Level Edmonton Center
02:48AM 62.5000 -114.5667 335° Northwest 150 173 3,200 1,680 Climbing Edmonton Center
02:49AM 62.5333 -114.6500 311° West 160 184 4,700 1,560 Climbing Edmonton Center
02:50AM 62.5667 -114.7000 325° Northwest 160 184 6,400 1,800 Climbing Edmonton Center
02:51AM 62.5833 -114.7833 294° West 150 173 8,300 1,800 Climbing Edmonton Center
02:52AM 62.6333 -114.8333 335° Northwest 150 173 10,100 1,800 Climbing Edmonton Center
02:53AM 62.6892 -114.9615 318° Northwest  Level FlightAware Approximate
02:53AM 62.6667 -114.9167 311° West 150 173 11,900  Level Edmonton Center
02:54AM 62.6833 -114.9667 306° West 140 161 13,500 1,500 Climbing Edmonton Center
02:55AM 62.7000 -115.0500 294° West 140 161 14,900 1,440 Climbing Edmonton Center
02:56AM 62.7333 -115.1000 326° Northwest 140 161 16,400 1,320 Climbing Edmonton Center
02:57AM 62.7667 -115.1833 311° West 140 161 17,600 1,020 Climbing Edmonton Center
02:58AM 62.8000 -115.2333 326° Northwest 150 173 18,500 1,080 Climbing Edmonton Center
02:59AM 62.8333 -115.2833 326° Northwest 150 173 19,800 1,080 Climbing Edmonton Center
03:00AM 62.8500 -115.3667 294° West 140 161 20,700 900 Climbing Edmonton Center
03:01AM 62.8833 -115.4167 326° Northwest 150 173 21,600 600 Climbing Edmonton Center
03:02AM 62.9167 -115.5000 311° West 150 173 22,000 180 Climbing Edmonton Center
03:03AM 62.9500 -115.5833 311° West 180 207 22,000  Level Edmonton Center
03:04AM 62.9833 -115.6667 311° West 200 230 22,000  Level Edmonton Center
03:05AM 63.0333 -115.7667 318° Northwest 210 242 22,000  Level Edmonton Center
03:06AM 63.0833 -115.8667 318° Northwest 200 230 22,000  Level Edmonton Center
03:07AM 63.1000 -115.9500 294° West 200 230 22,000  Level Edmonton Center
03:08AM 63.1500 -116.0333 323° Northwest 210 242 22,000  Level Edmonton Center
03:09AM 63.2000 -116.1333 318° Northwest 200 230 22,000  Level Edmonton Center
03:10AM 63.2167 -116.2167 294° West 200 230 22,000  Level Edmonton Center
03:11AM 63.2667 -116.3167 318° Northwest 200 230 22,000  Level Edmonton Center
03:12AM 63.3000 -116.4000 312° West 200 230 22,000  Level Edmonton Center
03:13AM 63.3333 -116.5000 307° West 200 230 22,000  Level Edmonton Center
03:14AM 63.3833 -116.5833 323° Northwest 200 230 22,000  Level Edmonton Center
03:15AM 63.4167 -116.6833 307° West 200 230 22,000  Level Edmonton Center
03:16AM 63.4667 -116.7833 318° Northwest 200 230 22,000  Level Edmonton Center
03:17AM 63.5000 -116.8667 312° West 200 230 22,000  Level Edmonton Center
03:18AM 63.5333 -116.9667 307° West 200 230 22,000  Level Edmonton Center
03:19AM 63.5833 -117.0500 323° Northwest 200 230 22,000  Level Edmonton Center
03:20AM 63.6333 -117.1500 318° Northwest 200 230 22,000  Level Edmonton Center
03:21AM 63.6500 -117.2333 294° West 200 230 22,000  Level Edmonton Center
03:22AM 63.7000 -117.3667 310° West 200 230 22,000  Level Edmonton Center
03:23AM 63.7333 -117.4333 319° Northwest 200 230 22,000  Level Edmonton Center
03:24AM 63.7667 -117.5667 300° West 200 230 22,000  Level Edmonton Center
03:25AM 63.8000 -117.6500 312° West 200 230 22,000  Level Edmonton Center
03:26AM 63.8500 -117.7500 319° Northwest 200 230 22,000  Level Edmonton Center
03:27AM 63.8833 -117.8500 307° West 200 230 22,000  Level Edmonton Center
03:28AM 63.9167 -117.9500 307° West 200 230 22,000  Level Edmonton Center
03:29AM 63.9667 -118.0500 319° Northwest 200 230 22,000  Level Edmonton Center
03:30AM 64.0000 -118.1333 312° West 200 230 22,000  Level Edmonton Center
03:31AM 64.0333 -118.2333 307° West 200 230 22,000  Level Edmonton Center
03:32AM 64.0667 -118.3333 307° West 200 230 22,000  Level Edmonton Center
03:33AM 64.1000 -118.4167 313° West 200 230 22,000  Level Edmonton Center
03:34AM 64.1500 -118.5167 319° Northwest 200 230 22,000  Level Edmonton Center
03:35AM 64.1833 -118.6167 307° West 200 230 22,000  Level Edmonton Center
03:36AM 64.2167 -118.7167 307° West 200 230 22,000  Level Edmonton Center
03:37AM 64.2500 -118.8167 308° West 200 230 22,000  Level Edmonton Center
03:38AM 64.3000 -118.9167 319° Northwest 200 230 22,000  Level Edmonton Center
03:39AM 64.3167 -119.0167 291° West 200 230 22,000  Level Edmonton Center
03:40AM 64.3667 -119.1167 319° Northwest 200 230 22,000  Level Edmonton Center
03:41AM 64.4000 -119.2167 308° West 200 230 22,000  Level Edmonton Center
03:42AM 64.4333 -119.3000 313° West 200 230 22,000  Level Edmonton Center
03:43AM 64.4667 -119.4000 308° West 200 230 22,000  Level Edmonton Center
03:45AM 64.5060 -119.5047 311° West  Level FlightAware Approximate
03:52AM 64.7499 -120.1696 310° West  Level FlightAware Approximate
03:53AM 64.7842 -120.2662 310° West  Level FlightAware Approximate
03:54AM 64.8185 -120.3630 310° West  Level FlightAware Approximate
03:55AM 64.8527 -120.4601 310° West  Level FlightAware Approximate
03:56AM 64.8868 -120.5574 310° West  Level FlightAware Approximate
03:57AM 64.9208 -120.6549 309° West  Level FlightAware Approximate
03:58AM 64.9548 -120.7527 309° West  Level FlightAware Approximate
03:59AM 64.9887 -120.8508 309° West  Level FlightAware Approximate
04:00AM 65.0226 -120.9490 309° West  Level FlightAware Approximate
04:01AM 65.0564 -121.0476 309° West  Level FlightAware Approximate
04:02AM 65.0901 -121.1464 309° West  Level FlightAware Approximate
04:03AM 65.1238 -121.2454 309° West  Level FlightAware Approximate
04:04AM 65.1574 -121.3447 309° West  Level FlightAware Approximate
04:05AM 65.1909 -121.4443 309° West  Level FlightAware Approximate
04:06AM 65.2244 -121.5441 309° West  Level FlightAware Approximate
04:07AM 65.2578 -121.6441 309° West  Level FlightAware Approximate
04:08AM 65.2911 -121.7444 309° West  Level FlightAware Approximate
04:09AM 65.3244 -121.8450 308° West  Level FlightAware Approximate
04:10AM 65.3576 -121.9458 308° West  Level FlightAware Approximate
04:11AM 65.3907 -122.0468 308° West  Level FlightAware Approximate
04:12AM 65.4238 -122.1482 308° West  Level FlightAware Approximate
04:13AM 65.4568 -122.2497 308° West  Level FlightAware Approximate
04:14AM 65.4897 -122.3516 308° West  Level FlightAware Approximate
04:15AM 65.5226 -122.4537 308° West  Level FlightAware Approximate
04:16AM 65.5553 -122.5560 308° West  Level FlightAware Approximate
04:17AM 65.5881 -122.6586 308° West  Level FlightAware Approximate
04:18AM 65.6207 -122.7615 308° West  Level FlightAware Approximate
04:19AM 65.6533 -122.8646 307° West  Level FlightAware Approximate
04:20AM 65.6858 -122.9680 307° West  Level FlightAware Approximate
04:21AM 65.7182 -123.0716 307° West  Level FlightAware Approximate
04:22AM 65.7506 -123.1755 307° West  Level FlightAware Approximate
04:23AM 65.7829 -123.2797 307° West  Level FlightAware Approximate
04:24AM 65.8151 -123.3841 307° West  Level FlightAware Approximate
04:25AM 65.8473 -123.4888 307° West  Level FlightAware Approximate
04:26AM 65.8794 -123.5937 307° West  Level FlightAware Approximate
04:27AM 65.9114 -123.6990 307° West  Level FlightAware Approximate
04:28AM 65.9433 -123.8044 307° West  Level FlightAware Approximate
04:29AM 65.9752 -123.9102 307° West  Level FlightAware Approximate
04:30AM 66.0070 -124.0162 306° West  Level FlightAware Approximate
04:31AM 66.0387 -124.1224 306° West  Level FlightAware Approximate
04:32AM 66.0704 -124.2290 306° West  Level FlightAware Approximate
04:33AM 66.1020 -124.3358 306° West  Level FlightAware Approximate
04:34AM 66.1335 -124.4428 306° West  Level FlightAware Approximate
04:35AM 66.1649 -124.5501 306° West  Level FlightAware Approximate
04:36AM 66.1963 -124.6577 306° West  Level FlightAware Approximate
04:37AM 66.2275 -124.7656 306° West  Level FlightAware Approximate
04:38AM 66.2587 -124.8737 306° West  Level FlightAware Approximate
04:39AM 66.2899 -124.9821 306° West  Level FlightAware Approximate
04:40AM 66.3209 -125.0908 305° West  Level FlightAware Approximate
04:41AM 66.3519 -125.1997 305° West  Level FlightAware Approximate
04:42AM 66.3828 -125.3089 305° West  Level FlightAware Approximate
04:43AM 66.4136 -125.4184 305° West  Level FlightAware Approximate
04:44AM 66.4444 -125.5281 305° West  Level FlightAware Approximate
04:45AM 66.4751 -125.6381 305° West  Level FlightAware Approximate
04:46AM 66.5056 -125.7484 305° West  Level FlightAware Approximate
04:47AM 66.5362 -125.8590 305° West  Level FlightAware Approximate
04:48AM 66.5666 -125.9698 305° West  Level FlightAware Approximate
04:49AM 66.5970 -126.0809 305° West  Level FlightAware Approximate
04:50AM 66.6272 -126.1923 304° West  Level FlightAware Approximate
04:51AM 66.6574 -126.3039 304° West  Level FlightAware Approximate
04:52AM 66.6876 -126.4158 304° West  Level FlightAware Approximate
04:53AM 66.7176 -126.5280 304° West  Level FlightAware Approximate
04:54AM 66.7476 -126.6405 304° West  Level FlightAware Approximate
04:55AM 66.7774 -126.7532 304° West  Level FlightAware Approximate
04:56AM 66.8072 -126.8662 304° West  Level FlightAware Approximate
04:57AM 66.8370 -126.9795 304° West  Level FlightAware Approximate
04:58AM 66.8666 -127.0930 304° West  Level FlightAware Approximate
04:59AM 66.8962 -127.2069 304° West  Level FlightAware Approximate
05:00AM 66.9256 -127.3210 303° West  Level FlightAware Approximate
05:01AM 66.9550 -127.4354 303° West  Level FlightAware Approximate
05:02AM 66.9843 -127.5500 303° West  Level FlightAware Approximate
05:03AM 67.0136 -127.6649 303° West  Level FlightAware Approximate
05:04AM 67.0427 -127.7802 303° West  Level FlightAware Approximate
05:05AM 67.0718 -127.8957 303° West  Level FlightAware Approximate
05:06AM 67.1008 -128.0114 303° West  Level FlightAware Approximate
05:07AM 67.1297 -128.1275 303° West  Level FlightAware Approximate
05:08AM 67.1585 -128.2438 303° West  Level FlightAware Approximate
05:09AM 67.1872 -128.3604 302° West  Level FlightAware Approximate
05:10AM 67.2158 -128.4772 302° West  Level FlightAware Approximate
05:11AM 67.2444 -128.5944 302° West  Level FlightAware Approximate
05:12AM 67.2729 -128.7118 302° West  Level FlightAware Approximate
05:13AM 67.3012 -128.8295 302° West  Level FlightAware Approximate
05:14AM 67.3296 -128.9475 302° West  Level FlightAware Approximate
05:15AM 67.3578 -129.0658 302° West  Level FlightAware Approximate
05:16AM 67.3859 -129.1843 302° West  Level FlightAware Approximate
05:17AM 67.4139 -129.3032 302° West  Level FlightAware Approximate
05:18AM 67.4419 -129.4223 301° West  Level FlightAware Approximate
05:19AM 67.4697 -129.5416 301° West  Level FlightAware Approximate
05:20AM 67.4975 -129.6613 301° West  Level FlightAware Approximate
05:21AM 67.5252 -129.7812 301° West  Level FlightAware Approximate
05:22AM 67.5521 -129.9025 300° West  Level FlightAware Approximate
05:23AM 67.5787 -130.0245 300° West  Level FlightAware Approximate
05:24AM 67.6052 -130.1467 300° West  Level FlightAware Approximate
05:25AM 67.6315 -130.2692 300° West  Level FlightAware Approximate
05:26AM 67.6578 -130.3919 299° West  Level FlightAware Approximate
05:27AM 67.6843 -130.5146 300° West  Level FlightAware Approximate
05:28AM 67.7108 -130.6373 300° West  Level FlightAware Approximate
05:29AM 67.7372 -130.7604 300° West  Level FlightAware Approximate
05:30AM 67.7635 -130.8837 299° West  Level FlightAware Approximate
05:31AM 67.7896 -131.0072 299° West  Level FlightAware Approximate
05:32AM 67.8158 -131.1311 299° West  Level FlightAware Approximate
05:33AM 67.8418 -131.2552 299° West  Level FlightAware Approximate
05:34AM 67.8677 -131.3797 299° West  Level FlightAware Approximate
05:35AM 67.8935 -131.5043 299° West  Level FlightAware Approximate
05:36AM 67.9194 -131.6291 300° West  Level FlightAware Approximate
05:37AM 67.9463 -131.7524 300° West  Level FlightAware Approximate
05:38AM 67.9732 -131.8759 300° West  Level FlightAware Approximate
05:39AM 68.0000 -131.9998 300° West  Level FlightAware Approximate
05:40AM 68.0254 -132.1258 298° West  Level FlightAware Approximate
05:41AM 68.0507 -132.2520 298° West  Level FlightAware Approximate
05:42AM 68.0759 -132.3786 298° West  Level FlightAware Approximate
05:43AM 68.1011 -132.5053 299° West  Level FlightAware Approximate
05:44AM 68.1274 -132.6306 299° West  Level FlightAware Approximate
05:45AM 68.1536 -132.7562 299° West  Level FlightAware Approximate
05:46AM 68.1796 -132.8821 299° West  Level FlightAware Approximate